Airport View

Enter AWOS ICAO identifier for current METAR.

ex. KFNL

KGVE 192355Z AUTO 00000KT 10SM CLR 14/14 A3024 RMK AO1 T01360136 10206 20136

19 Oct 2020 23:57

Frequency: 120.225

Phone: 540-832-2095

Other Area AWOS: KOMH - KLKU - KCHO - K7W4

TAF KCHO 191735Z 1918/2018 18008KT P6SM FEW040 FM200300 18003KT P6SM BKN200 FM200700 20003KT 3SM BR OVC010 FM201400 21003KT 5SM BR BKN100 FM201600 21005KT P6SM SCT200